Time;durP1;ratioP1;P1;durP2;ratioP2;P2;SDS_P1;SDS_P2;PMS_P1;PMS_P2;Temp;Humidity;BMP_temperature;BMP_pressure;BME280_temperature;BME280_humidity;BME280_pressure;Samples;Min_cycle;Max_cycle;Signal;HPM_P1;HPM_P2
2023/04/21 00:01:28;;;;;;;39.13;19.35;;;;;;;8.32;100.00;100661.16;5071698;28;20454;-74
2023/04/21 00:04:02;;;;;;;35.40;16.20;;;;;;;8.29;100.00;100643.00;5070549;28;20032;-75
2023/04/21 00:06:31;;;;;;;29.38;15.50;;;;;;;8.25;100.00;100645.19;5071725;28;20445;-76
2023/04/21 00:09:04;;;;;;;33.20;16.50;;;;;;;8.22;100.00;100643.25;5071683;28;20083;-74
2023/04/21 00:11:29;;;;;;;35.03;17.00;;;;;;;8.21;100.00;100643.75;5070124;28;20111;-76
2023/04/21 00:13:55;;;;;;;34.42;17.95;;;;;;;8.18;100.00;100641.81;5070092;28;20128;-77
2023/04/21 00:16:21;;;;;;;25.23;16.23;;;;;;;8.16;100.00;100645.13;5071682;28;20024;-74
2023/04/21 00:18:47;;;;;;;33.85;17.52;;;;;;;8.13;100.00;100637.50;5071648;28;20472;-74
2023/04/21 00:21:34;;;;;;;28.55;16.73;;;;;;;8.08;100.00;100637.31;5071516;28;20125;-75
2023/04/21 00:24:00;;;;;;;27.85;16.23;;;;;;;8.07;100.00;100638.56;5071667;28;20453;-75
2023/04/21 00:26:35;;;;;;;28.67;16.25;;;;;;;8.02;100.00;100636.34;5072617;28;20493;-75
2023/04/21 00:29:01;;;;;;;27.25;15.63;;;;;;;8.00;100.00;100633.97;5075380;28;20390;-75
2023/04/21 00:31:27;;;;;;;30.48;16.80;;;;;;;8.00;100.00;100641.72;5073893;28;20073;-76
2023/04/21 00:33:54;;;;;;;31.73;17.00;;;;;;;7.88;100.00;100629.97;5076094;28;20466;-75
2023/04/21 00:36:20;;;;;;;29.92;16.75;;;;;;;7.93;100.00;100640.75;5076159;28;20055;-75
2023/04/21 00:38:46;;;;;;;25.35;16.25;;;;;;;7.92;100.00;100639.16;5075985;28;20048;-75
2023/04/21 00:41:12;;;;;;;27.10;15.70;;;;;;;7.91;100.00;100631.09;5076357;28;20028;-75
2023/04/21 00:44:06;;;;;;;40.13;17.63;;;;;;;7.89;100.00;100630.75;5076224;28;20066;-75
2023/04/21 00:46:38;;;;;;;27.20;16.88;;;;;;;7.87;100.00;100628.38;5074653;28;20178;-76
2023/04/21 00:49:06;;;;;;;29.98;17.20;;;;;;;7.85;100.00;100627.25;5075981;28;20043;-75
2023/04/21 00:51:34;;;;;;;35.47;17.60;;;;;;;7.84;100.00;100631.38;5074724;28;20036;-76
2023/04/21 00:54:07;;;;;;;27.77;15.77;;;;;;;7.79;100.00;100627.06;5074719;28;20059;-75
2023/04/21 00:56:35;;;;;;;35.55;16.98;;;;;;;7.79;100.00;100637.66;5075450;28;20073;-74
2023/04/21 00:59:02;;;;;;;33.17;16.80;;;;;;;7.77;100.00;100638.13;5074611;28;20120;-76
2023/04/21 01:01:30;;;;;;;31.70;17.35;;;;;;;7.74;100.00;100630.53;5075252;28;20059;-74
2023/04/21 01:04:05;;;;;;;28.92;15.23;;;;;;;7.73;100.00;100631.78;5075903;28;20070;-75
2023/04/21 01:06:35;;;;;;;29.40;16.00;;;;;;;7.72;100.00;100635.09;5075857;28;20095;-75
2023/04/21 01:09:03;;;;;;;31.98;15.18;;;;;;;7.70;100.00;100635.56;5074604;28;20048;-75
2023/04/21 01:11:31;;;;;;;32.08;17.52;;;;;;;7.66;100.00;100631.28;5075606;28;20032;-75
2023/04/21 01:13:57;;;;;;;34.65;17.33;;;;;;;7.69;100.00;100636.00;5075316;28;20108;-76
2023/04/21 01:16:24;;;;;;;33.83;16.55;;;;;;;7.65;100.00;100629.69;5075596;28;20037;-75
2023/04/21 01:18:52;;;;;;;31.85;15.93;;;;;;;7.64;100.00;100628.88;5075734;28;20036;-76
2023/04/21 01:21:20;;;;;;;32.33;15.77;;;;;;;7.62;100.00;100628.53;5073984;28;20036;-75
2023/04/21 01:23:48;;;;;;;33.03;17.17;;;;;;;7.60;100.00;100635.97;5073970;28;20036;-75
2023/04/21 01:26:17;;;;;;;34.63;16.50;;;;;;;7.53;100.00;100629.28;5073863;28;20113;-76
2023/04/21 01:28:46;;;;;;;38.30;17.15;;;;;;;7.50;100.00;100637.97;5073959;28;20093;-75
2023/04/21 01:31:22;;;;;;;27.70;16.95;;;;;;;7.45;100.00;100625.13;5075197;28;20029;-75
2023/04/21 01:33:49;;;;;;;31.20;16.90;;;;;;;7.42;100.00;100630.97;5075084;28;20024;-76
2023/04/21 01:36:15;;;;;;;33.92;18.25;;;;;;;7.38;100.00;100627.44;5075264;28;20021;-74
2023/04/21 01:38:41;;;;;;;31.00;17.80;;;;;;;7.29;100.00;100628.16;5073007;28;20032;-75
2023/04/21 01:41:09;;;;;;;31.00;16.77;;;;;;;7.30;100.00;100631.81;5074913;28;20036;-75
2023/04/21 01:43:36;;;;;;;30.75;16.83;;;;;;;7.26;100.00;100631.16;5075295;28;20040;-77
2023/04/21 01:46:04;;;;;;;29.05;16.73;;;;;;;7.22;100.00;100630.50;5076030;28;20066;-75
2023/04/21 01:48:30;;;;;;;30.58;17.23;;;;;;;7.18;100.00;100626.97;5057271;28;20489;-76
2023/04/21 01:50:57;;;;;;;24.30;16.30;;;;;;;7.16;100.00;100629.50;5077358;28;20554;-75
2023/04/21 01:53:22;;;;;;;39.97;17.73;;;;;;;7.10;100.00;100627.25;5076545;28;20136;-75
2023/04/21 01:55:48;;;;;;;23.63;15.32;;;;;;;7.09;100.00;100630.53;5074613;28;20056;-76
2023/04/21 01:58:13;;;;;;;33.55;17.90;;;;;;;7.04;100.00;100631.91;5074613;28;20036;-75
2023/04/21 02:00:39;;;;;;;43.80;17.45;;;;;;;7.02;100.00;100636.50;5073575;28;20082;-73
2023/04/21 02:03:05;;;;;;;28.48;17.63;;;;;;;7.00;100.00;100638.97;5071990;28;20531;-75
2023/04/21 02:05:36;;;;;;;34.47;18.83;;;;;;;6.97;100.00;100642.75;5073326;28;20455;-76
2023/04/21 02:08:02;;;;;;;28.58;16.02;;;;;;;6.93;100.00;100644.94;5071808;28;20466;-75
2023/04/21 02:10:27;;;;;;;29.38;17.17;;;;;;;6.88;100.00;100643.44;5073413;28;20035;-76
2023/04/21 02:12:59;;;;;;;34.10;16.95;;;;;;;6.85;100.00;100640.75;5073278;28;20102;-75
2023/04/21 02:15:26;;;;;;;36.10;18.15;;;;;;;6.78;100.00;100632.47;5071864;28;20032;-75
2023/04/21 02:17:51;;;;;;;28.92;16.45;;;;;;;6.72;100.00;100640.00;5073284;28;20074;-75
2023/04/21 02:20:17;;;;;;;42.53;17.75;;;;;;;6.68;100.00;100638.03;5072966;28;20055;-75
2023/04/21 02:22:43;;;;;;;37.78;18.88;;;;;;;6.63;100.00;100646.38;5071692;28;20051;-75
2023/04/21 02:25:08;;;;;;;33.75;18.55;;;;;;;6.58;100.00;100639.19;5073236;28;20025;-75
2023/04/21 02:27:35;;;;;;;34.50;19.38;;;;;;;6.55;100.00;100645.00;5071955;28;20441;-75
2023/04/21 02:30:02;;;;;;;32.92;17.95;;;;;;;6.51;100.00;100641.50;5074180;28;20446;-76
2023/04/21 02:32:29;;;;;;;29.73;19.20;;;;;;;6.46;100.00;100648.56;5073980;28;20032;-75
2023/04/21 02:34:55;;;;;;;35.63;20.15;;;;;;;6.37;100.00;100645.63;5073869;28;20040;-75
2023/04/21 02:37:21;;;;;;;31.02;17.27;;;;;;;6.31;100.00;100650.25;5073837;28;20389;-76
2023/04/21 02:39:46;;;;;;;33.90;18.23;;;;;;;6.28;100.00;100647.53;5072888;28;20025;-75
2023/04/21 02:42:13;;;;;;;33.85;20.17;;;;;;;6.27;100.00;100658.06;5073873;28;20028;-75
2023/04/21 02:44:41;;;;;;;30.60;18.40;;;;;;;6.22;100.00;100656.59;5073860;28;20086;-76
2023/04/21 02:47:07;;;;;;;33.30;18.67;;;;;;;6.17;100.00;100656.38;5073581;28;20376;-75
2023/04/21 02:49:33;;;;;;;32.67;17.65;;;;;;;6.11;100.00;100656.16;5073297;28;20032;-75
2023/04/21 02:52:00;;;;;;;34.03;18.50;;;;;;;6.02;100.00;100643.88;5071881;28;20028;-76
2023/04/21 02:54:26;;;;;;;36.05;20.52;;;;;;;6.09;100.00;100669.97;5073884;28;20103;-75
2023/04/21 02:56:53;;;;;;;36.20;20.75;;;;;;;6.07;100.00;100666.00;5073568;28;20020;-75
2023/04/21 02:59:19;;;;;;;36.85;20.05;;;;;;;6.04;100.00;100661.25;5073635;28;20123;-76
2023/04/21 03:01:48;;;;;;;45.45;20.98;;;;;;;6.01;100.00;100659.31;5073391;28;20036;-76
2023/04/21 03:04:13;;;;;;;38.05;20.17;;;;;;;5.97;100.00;100667.16;5073438;28;20059;-75
2023/04/21 03:06:38;;;;;;;35.03;20.23;;;;;;;5.95;100.00;100663.94;5073261;28;20064;-74
2023/04/21 03:09:05;;;;;;;37.08;21.83;;;;;;;5.95;100.00;100669.63;5073391;28;20473;-75
2023/04/21 03:11:31;;;;;;;36.00;21.13;;;;;;;5.93;100.00;100669.31;5073470;28;20044;-75
2023/04/21 03:13:57;;;;;;;37.88;21.23;;;;;;;5.89;100.00;100663.75;5073568;28;20021;-75
2023/04/21 03:16:24;;;;;;;40.03;20.88;;;;;;;5.88;100.00;100667.81;5073865;28;20020;-75
2023/04/21 03:18:50;;;;;;;42.35;21.42;;;;;;;5.88;100.00;100672.69;5073520;28;20034;-75
2023/04/21 03:21:17;;;;;;;41.33;21.58;;;;;;;5.86;100.00;100664.63;5071973;28;20020;-76
2023/04/21 03:23:43;;;;;;;46.50;21.67;;;;;;;5.84;100.00;100655.00;5073611;28;20108;-76
2023/04/21 03:26:09;;;;;;;42.78;22.30;;;;;;;5.81;100.00;100668.81;5072138;28;20025;-74
2023/04/21 03:28:35;;;;;;;43.97;21.27;;;;;;;5.78;100.00;100661.22;5073348;28;20024;-75
2023/04/21 03:31:09;;;;;;;35.95;20.80;;;;;;;5.77;100.00;100665.31;5072077;28;20032;-75
2023/04/21 03:33:35;;;;;;;36.40;20.67;;;;;;;5.74;100.00;100660.53;5073019;28;20032;-75
2023/04/21 03:36:01;;;;;;;42.20;20.80;;;;;;;5.73;100.00;100673.13;5073104;28;20035;-75
2023/04/21 03:38:31;;;;;;;41.60;20.15;;;;;;;5.71;100.00;100672.78;5073337;28;20032;-76
2023/04/21 03:40:57;;;;;;;39.70;21.10;;;;;;;5.69;100.00;100678.13;5073444;28;20515;-75
2023/04/21 03:43:23;;;;;;;40.17;21.02;;;;;;;5.68;100.00;100678.56;5073142;28;20027;-75
2023/04/21 03:45:49;;;;;;;43.47;21.55;;;;;;;5.66;100.00;100672.53;5073267;28;20074;-75
2023/04/21 03:48:15;;;;;;;42.45;21.73;;;;;;;5.67;100.00;100676.97;5074397;28;20025;-76
2023/04/21 03:50:40;;;;;;;48.90;21.65;;;;;;;5.68;100.00;100678.56;5073726;28;20028;-75
2023/04/21 03:53:07;;;;;;;42.67;21.75;;;;;;;5.68;100.00;100675.72;5072762;28;20126;-75
2023/04/21 03:55:33;;;;;;;40.03;21.77;;;;;;;5.68;100.00;100670.84;5073030;28;20016;-72
2023/04/21 03:57:59;;;;;;;36.33;19.70;;;;;;;5.71;100.00;100674.81;5073099;28;20048;-72
2023/04/21 04:00:25;;;;;;;40.42;20.95;;;;;;;5.68;100.00;100685.03;5071785;28;20028;-72
2023/04/21 04:02:51;;;;;;;43.20;21.92;;;;;;;5.69;100.00;100685.81;5075040;28;20377;-71
2023/04/21 04:05:17;;;;;;;40.15;21.40;;;;;;;5.72;100.00;100677.19;5076734;28;20021;-71
2023/04/21 04:07:44;;;;;;;34.72;19.63;;;;;;;5.72;100.00;100674.38;5077100;28;20028;-72
2023/04/21 04:10:10;;;;;;;40.53;21.10;;;;;;;5.80;100.00;100680.59;5077002;28;20075;-72
2023/04/21 04:12:36;;;;;;;38.42;22.73;;;;;;;5.85;100.00;100691.38;5076091;28;20485;-72
2023/04/21 04:15:02;;;;;;;39.80;22.85;;;;;;;5.91;100.00;100683.13;5076503;28;20020;-73
2023/04/21 04:17:28;;;;;;;35.67;21.10;;;;;;;5.97;100.00;100692.66;5077445;28;20032;-73
2023/04/21 04:19:55;;;;;;;42.55;21.92;;;;;;;6.00;100.00;100689.72;5076194;28;20086;-72
2023/04/21 04:22:21;;;;;;;35.03;20.17;;;;;;;6.07;100.00;100691.53;5076116;28;20483;-72
2023/04/21 04:24:47;;;;;;;36.15;21.30;;;;;;;6.11;100.00;100692.22;5076196;28;20108;-73
2023/04/21 04:27:13;;;;;;;44.20;20.45;;;;;;;6.17;100.00;100693.25;5076715;28;20326;-72
2023/04/21 04:29:40;;;;;;;68.28;30.63;;;;;;;6.19;100.00;100688.69;5076336;28;20512;-74
2023/04/21 04:32:09;;;;;;;44.50;22.88;;;;;;;6.28;100.00;100688.03;5075992;28;20027;-72
2023/04/21 04:34:36;;;;;;;52.42;22.38;;;;;;;6.34;100.00;100683.41;5076445;28;20016;-73
2023/04/21 04:37:03;;;;;;;47.15;23.27;;;;;;;6.41;100.00;100677.50;5075056;28;20056;-73
2023/04/21 04:39:30;;;;;;;40.22;22.50;;;;;;;6.53;100.00;100690.09;5076478;28;20024;-73
2023/04/21 04:41:57;;;;;;;41.70;23.25;;;;;;;6.59;100.00;100685.44;5076082;28;20417;-74
2023/04/21 04:44:24;;;;;;;46.33;24.70;;;;;;;6.66;100.00;100691.69;5075325;28;20027;-75
2023/04/21 04:46:51;;;;;;;56.75;23.23;;;;;;;6.75;100.00;100688.13;5058490;28;20064;-72
2023/04/21 04:49:17;;;;;;;42.20;22.30;;;;;;;6.85;100.00;100695.50;5075790;28;20024;-74
2023/04/21 04:51:43;;;;;;;65.05;25.55;;;;;;;6.94;100.00;100700.47;5076106;28;20040;-73
2023/04/21 04:54:09;;;;;;;39.08;22.60;;;;;;;7.02;100.00;100699.78;5075696;28;20398;-71
2023/04/21 04:56:35;;;;;;;48.90;23.13;;;;;;;7.12;100.00;100685.66;5075841;28;20017;-73
2023/04/21 04:59:02;;;;;;;45.47;20.80;;;;;;;7.23;100.00;100689.69;5075706;28;20028;-73
2023/04/21 05:01:29;;;;;;;51.42;20.40;;;;;;;7.33;100.00;100685.69;5075915;28;20035;-78
2023/04/21 05:03:56;;;;;;;37.83;20.75;;;;;;;7.45;100.00;100679.16;5074731;28;20024;-74
2023/04/21 05:06:24;;;;;;;41.35;19.02;;;;;;;7.61;100.00;100691.59;5074720;28;20028;-76
2023/04/21 05:08:50;;;;;;;38.42;21.35;;;;;;;7.71;100.00;100685.50;5075430;28;20523;-75
2023/04/21 05:11:16;;;;;;;43.72;22.60;;;;;;;7.86;100.00;100697.13;5077576;28;20028;-77
2023/04/21 05:13:43;;;;;;;49.58;23.65;;;;;;;7.98;100.00;100693.41;5076157;28;20024;-79
2023/04/21 05:16:10;;;;;;;42.40;21.98;;;;;;;8.11;100.00;100691.28;5075316;28;20130;-78
2023/04/21 05:18:37;;;;;;;36.10;20.50;;;;;;;8.23;100.00;100689.59;5075610;28;20481;-80
2023/04/21 05:21:02;;;;;;;39.45;19.58;;;;;;;8.25;100.00;100667.97;5075082;28;20057;-77
2023/04/21 05:23:29;;;;;;;38.53;20.58;;;;;;;8.47;100.00;100692.72;5075039;28;20033;-78
2023/04/21 05:25:55;;;;;;;33.03;18.55;;;;;;;8.58;100.00;100696.72;5075847;28;20028;-78
2023/04/21 05:28:22;;;;;;;30.90;19.17;;;;;;;8.65;100.00;100687.09;5076937;28;20023;-78
2023/04/21 05:30:50;;;;;;;34.17;19.05;;;;;;;8.78;100.00;100688.53;5076192;28;20060;-79
2023/04/21 05:33:18;;;;;;;35.47;20.02;;;;;;;8.91;100.00;100693.31;5074787;28;20478;-80
2023/04/21 05:35:45;;;;;;;36.60;18.08;;;;;;;9.02;100.00;100685.09;5057080;28;20032;-79
2023/04/21 05:38:10;;;;;;;33.25;17.60;;;;;;;9.15;100.00;100682.91;5075629;28;20031;-79
2023/04/21 05:40:51;;;;;;;28.88;16.83;;;;;;;9.26;100.00;100686.06;5074945;28;20016;-70
2023/04/21 05:43:17;;;;;;;31.83;16.50;;;;;;;9.39;100.00;100686.72;5072368;28;20438;-71
2023/04/21 05:45:44;;;;;;;32.20;16.88;;;;;;;9.52;100.00;100678.78;5072431;28;20376;-71
2023/04/21 05:48:10;;;;;;;30.00;17.50;;;;;;;9.67;100.00;100685.44;5073695;28;20466;-71
2023/04/21 05:50:37;;;;;;;28.80;16.52;;;;;;;9.81;100.00;100684.00;5073919;28;20733;-71
2023/04/21 05:53:02;;;;;;;34.25;15.95;;;;;;;9.91;100.00;100694.13;5073525;28;20170;-71
2023/04/21 05:55:29;;;;;;;34.03;16.00;;;;;;;10.09;100.00;100694.09;5072519;28;20052;-72
2023/04/21 05:57:54;;;;;;;30.85;15.18;;;;;;;10.23;100.00;100686.94;5072343;28;20393;-69
2023/04/21 06:00:20;;;;;;;27.55;16.30;;;;;;;10.43;100.00;100687.13;5074495;28;20026;-71
2023/04/21 06:02:45;;;;;;;25.65;15.80;;;;;;;10.54;100.00;100692.34;5074401;28;20086;-71
2023/04/21 06:05:11;;;;;;;26.60;16.33;;;;;;;10.62;100.00;100687.06;5073255;28;20025;-70
2023/04/21 06:07:38;;;;;;;27.67;14.95;;;;;;;10.80;100.00;100692.69;5074454;28;20028;-72
2023/04/21 06:10:05;;;;;;;28.90;15.68;;;;;;;10.85;100.00;100695.66;5074632;28;20021;-70
2023/04/21 06:12:31;;;;;;;27.42;15.52;;;;;;;10.99;100.00;100689.22;5074939;28;20385;-70
2023/04/21 06:14:58;;;;;;;25.73;16.00;;;;;;;11.13;100.00;100693.44;5074512;28;20475;-71
2023/04/21 06:17:24;;;;;;;24.45;15.68;;;;;;;11.24;100.00;100690.03;5074540;28;20024;-71
2023/04/21 06:19:52;;;;;;;23.17;15.65;;;;;;;11.33;100.00;100687.88;5072976;28;20019;-72
2023/04/21 06:22:24;;;;;;;24.90;15.45;;;;;;;11.37;100.00;100693.41;5072833;28;20045;-70
2023/04/21 06:24:50;;;;;;;27.95;14.93;;;;;;;11.46;100.00;100692.56;5074209;28;20024;-69
2023/04/21 06:27:24;;;;;;;28.98;15.30;;;;;;;11.54;100.00;100690.91;5073158;28;20028;-72
2023/04/21 06:29:54;;;;;;;25.33;14.85;;;;;;;11.58;100.00;100691.50;5074275;28;20033;-70
2023/04/21 06:32:21;;;;;;;25.98;15.05;;;;;;;11.68;100.00;100695.84;5056214;28;20065;-71
2023/04/21 06:34:47;;;;;;;32.00;15.10;;;;;;;11.93;100.00;100686.72;5074167;28;20047;-70
2023/04/21 06:37:21;;;;;;;23.02;13.15;;;;;;;12.62;100.00;100688.94;5073919;28;20048;-72
2023/04/21 06:39:47;;;;;;;23.73;14.10;;;;;;;14.49;100.00;100689.31;5073952;28;20032;-71
2023/04/21 06:42:13;;;;;;;27.35;14.82;;;;;;;16.78;87.30;100691.69;5074016;28;20028;-71
2023/04/21 06:44:40;;;;;;;21.13;13.15;;;;;;;19.16;81.85;100682.88;5072795;28;20405;-70
2023/04/21 06:47:05;;;;;;;22.52;13.55;;;;;;;21.56;64.31;100682.72;5073777;28;20056;-71
2023/04/21 06:49:32;;;;;;;25.80;13.73;;;;;;;23.72;52.72;100698.94;5073710;28;20413;-72
2023/04/21 06:51:58;;;;;;;20.90;13.55;;;;;;;25.63;45.98;100691.97;5073237;28;20025;-69
2023/04/21 06:54:26;;;;;;;25.40;13.38;;;;;;;27.10;38.72;100695.78;5072207;28;20056;-71
2023/04/21 06:56:53;;;;;;;24.67;13.85;;;;;;;28.43;36.02;100686.56;5072417;28;20470;-71
2023/04/21 06:59:19;;;;;;;22.88;13.30;;;;;;;29.37;33.09;100686.00;5073574;28;20107;-70
2023/04/21 07:01:50;;;;;;;19.95;14.75;;;;;;;30.25;30.90;100687.56;5071971;28;20051;-72
2023/04/21 07:04:18;;;;;;;18.77;13.20;;;;;;;30.63;29.04;100684.47;5072080;28;20493;-74
2023/04/21 07:06:45;;;;;;;20.05;14.23;;;;;;;31.13;28.94;100683.63;5055573;28;20111;-73
2023/04/21 07:09:10;;;;;;;20.20;13.45;;;;;;;31.19;27.65;100676.00;5072076;28;20026;-73
2023/04/21 07:11:36;;;;;;;20.45;13.82;;;;;;;31.53;27.42;100673.91;5072078;28;20028;-73
2023/04/21 07:14:02;;;;;;;16.98;13.32;;;;;;;32.33;26.78;100680.84;5073128;28;20025;-70
2023/04/21 07:16:28;;;;;;;18.20;13.15;;;;;;;32.98;25.83;100668.03;5073100;28;20028;-70
2023/04/21 07:18:53;;;;;;;25.20;15.00;;;;;;;33.80;25.69;100675.38;5072899;28;20509;-74
2023/04/21 07:21:18;;;;;;;17.15;13.50;;;;;;;34.71;24.48;100662.84;5071594;28;20457;-71
2023/04/21 07:23:44;;;;;;;18.00;12.93;;;;;;;35.48;24.22;100664.06;5071764;28;20077;-72
2023/04/21 07:26:10;;;;;;;16.58;12.70;;;;;;;35.94;22.30;100653.81;5072978;28;20090;-70
2023/04/21 07:28:37;;;;;;;21.45;13.15;;;;;;;35.58;21.89;100649.75;5073003;28;20054;-70
2023/04/21 07:31:03;;;;;;;18.65;13.10;;;;;;;34.98;21.37;100646.47;5071931;28;20036;-69
2023/04/21 07:33:29;;;;;;;20.05;13.05;;;;;;;35.24;21.73;100650.91;5073104;28;20052;-70
2023/04/21 07:35:56;;;;;;;19.48;13.70;;;;;;;35.42;21.31;100648.09;5072324;28;20092;-70
2023/04/21 07:38:21;;;;;;;21.63;12.93;;;;;;;35.83;21.65;100651.78;5077188;28;20024;-70
2023/04/21 07:40:47;;;;;;;20.30;13.00;;;;;;;36.30;20.59;100651.13;5075690;28;20117;-70
2023/04/21 07:43:13;;;;;;;18.25;12.77;;;;;;;36.61;20.19;100656.38;5076964;28;20029;-72
2023/04/21 07:45:38;;;;;;;17.23;13.02;;;;;;;36.71;19.44;100642.75;5074086;28;20512;-70
2023/04/21 07:48:05;;;;;;;17.00;12.30;;;;;;;36.90;19.64;100640.63;5074334;28;20028;-71
2023/04/21 07:50:30;;;;;;;16.95;13.55;;;;;;;36.93;18.54;100642.28;5074724;28;20033;-70
2023/04/21 07:52:56;;;;;;;22.48;13.25;;;;;;;36.22;19.59;100644.78;5073869;28;20048;-71
2023/04/21 07:55:21;;;;;;;19.65;13.18;;;;;;;36.19;19.25;100637.22;5074877;28;20024;-72
2023/04/21 07:57:47;;;;;;;18.20;13.43;;;;;;;36.53;20.06;100644.09;5075053;28;20024;-71
2023/04/21 08:00:14;;;;;;;16.20;11.70;;;;;;;37.29;19.48;100640.94;5075579;28;20032;-70
2023/04/21 08:02:39;;;;;;;17.55;11.98;;;;;;;38.03;19.19;100637.47;5076427;28;20024;-70
2023/04/21 08:05:05;;;;;;;14.10;12.13;;;;;;;38.47;18.59;100628.81;5076385;28;20607;-71
2023/04/21 08:07:30;;;;;;;21.02;13.45;;;;;;;38.86;18.21;100634.84;5076736;28;20033;-70
2023/04/21 08:09:56;;;;;;;18.67;11.82;;;;;;;38.34;17.62;100624.59;5076295;28;20433;-71
2023/04/21 08:12:21;;;;;;;17.75;12.20;;;;;;;38.08;18.34;100636.19;5075217;28;20047;-71
2023/04/21 08:14:46;;;;;;;15.98;11.90;;;;;;;38.12;17.49;100630.38;5076247;28;20032;-71
2023/04/21 08:17:12;;;;;;;14.15;11.70;;;;;;;38.20;18.29;100627.00;5076496;28;20377;-71
2023/04/21 08:19:37;;;;;;;17.15;12.20;;;;;;;38.47;18.02;100626.59;5075874;28;20465;-72
2023/04/21 08:22:03;;;;;;;18.83;11.18;;;;;;;38.41;17.60;100617.38;5075918;28;20024;-70
2023/04/21 08:24:28;;;;;;;15.90;11.27;;;;;;;38.38;17.91;100618.00;5074569;28;20074;-72
2023/04/21 08:26:54;;;;;;;14.02;11.18;;;;;;;38.03;16.58;100624.78;5074811;28;20024;-70
2023/04/21 08:29:19;;;;;;;16.02;11.93;;;;;;;37.60;17.62;100616.22;5076035;28;20086;-71
2023/04/21 08:31:45;;;;;;;18.50;11.32;;;;;;;37.60;18.07;100613.25;5076009;28;20488;-71
2023/04/21 08:34:10;;;;;;;17.73;11.40;;;;;;;37.51;17.92;100609.16;5074549;28;20028;-70
2023/04/21 08:36:36;;;;;;;17.05;12.35;;;;;;;37.35;17.85;100608.44;5075763;28;20012;-70
2023/04/21 08:39:01;;;;;;;20.23;12.27;;;;;;;37.25;17.98;100611.72;5076062;28;20092;-71
2023/04/21 08:41:27;;;;;;;15.75;12.07;;;;;;;37.04;17.72;100611.47;5075720;28;20023;-70
2023/04/21 08:43:52;;;;;;;17.92;12.50;;;;;;;36.67;18.65;100609.78;5075140;28;20115;-73
2023/04/21 08:46:18;;;;;;;16.77;11.88;;;;;;;36.22;18.07;100609.06;5076058;28;20107;-70
2023/04/21 08:48:45;;;;;;;16.90;12.10;;;;;;;35.09;19.03;100604.78;5075491;28;20509;-71
2023/04/21 08:51:10;;;;;;;17.65;11.77;;;;;;;34.37;19.33;100601.50;5075632;28;20466;-72
2023/04/21 08:53:37;;;;;;;14.30;11.77;;;;;;;34.36;20.56;100600.00;5075440;28;20036;-70
2023/04/21 08:56:03;;;;;;;13.98;9.73;;;;;;;34.60;19.50;100604.31;5075539;28;20407;-70
2023/04/21 08:58:28;;;;;;;12.30;9.48;;;;;;;33.88;19.24;100597.94;5074280;28;20028;-73
2023/04/21 09:00:53;;;;;;;13.13;10.60;;;;;;;33.16;20.52;100600.25;5075669;28;20381;-72
2023/04/21 09:03:26;;;;;;;15.60;10.52;;;;;;;32.95;20.56;100601.97;5075687;28;20020;-70
2023/04/21 09:06:04;;;;;;;20.75;10.23;;;;;;;32.94;20.62;100602.59;5075329;28;20016;-71
2023/04/21 09:08:30;;;;;;;15.43;10.60;;;;;;;33.04;21.11;100597.31;5057379;28;20025;-72
2023/04/21 09:10:57;;;;;;;14.95;10.45;;;;;;;33.28;21.58;100603.97;5074999;28;20020;-71
2023/04/21 09:13:32;;;;;;;15.60;8.95;;;;;;;33.22;20.36;100601.44;5075226;28;20028;-71
2023/04/21 09:15:58;;;;;;;11.60;9.60;;;;;;;33.07;19.99;100590.88;5074931;28;20025;-72
2023/04/21 09:18:26;;;;;;;16.02;10.02;;;;;;;32.96;20.35;100588.72;5075169;28;20052;-73
2023/04/21 09:21:04;;;;;;;13.13;10.43;;;;;;;32.60;20.47;100590.13;5074888;28;20590;-71
2023/04/21 09:23:30;;;;;;;8.38;7.55;;;;;;;31.77;21.38;100581.75;5074682;28;20028;-72
2023/04/21 09:25:55;;;;;;;9.77;7.45;;;;;;;31.20;20.65;100585.22;5074812;28;20026;-71
2023/04/21 09:28:21;;;;;;;12.27;8.45;;;;;;;30.70;21.68;100579.50;5075164;28;20067;-72
2023/04/21 09:30:47;;;;;;;14.98;9.32;;;;;;;30.04;22.68;100585.78;5074677;28;20024;-73
2023/04/21 09:33:16;;;;;;;16.30;9.55;;;;;;;29.09;23.37;100584.44;5074641;28;20021;-72
2023/04/21 09:35:42;;;;;;;15.57;10.02;;;;;;;28.35;24.58;100591.78;5074910;28;20020;-77
2023/04/21 09:38:11;;;;;;;14.18;9.95;;;;;;;27.76;25.17;100591.28;5074755;28;20035;-77
2023/04/21 09:40:37;;;;;;;12.60;9.43;;;;;;;27.66;25.42;100591.22;5073804;28;20025;-77
2023/04/21 09:43:03;;;;;;;12.30;9.32;;;;;;;27.45;26.16;100588.00;5074691;28;20036;-78
2023/04/21 09:45:29;;;;;;;20.63;9.48;;;;;;;27.00;26.67;100580.47;5074991;28;20020;-78
2023/04/21 09:47:56;;;;;;;12.65;7.45;;;;;;;27.04;26.75;100587.47;5075030;28;20024;-78
2023/04/21 09:50:23;;;;;;;11.15;7.30;;;;;;;27.11;26.16;100603.41;5074569;28;20028;-79
2023/04/21 09:52:53;;;;;;;11.02;8.02;;;;;;;26.76;25.79;100582.84;5074802;28;20125;-78
2023/04/21 09:55:26;;;;;;;13.30;7.57;;;;;;;25.99;26.15;100577.38;5085105;28;20081;-77
2023/04/21 09:57:51;;;;;;;9.30;8.10;;;;;;;25.81;26.94;100573.59;5085975;28;20028;-76
2023/04/21 10:00:17;;;;;;;13.20;8.88;;;;;;;24.95;27.93;100576.63;5086480;28;20051;-78
2023/04/21 10:02:50;;;;;;;15.02;10.20;;;;;;;24.24;29.31;100571.22;5080537;28;20029;-77
2023/04/21 10:05:16;;;;;;;11.57;8.60;;;;;;;23.63;29.00;100571.06;5072503;28;20020;-77
2023/04/21 10:07:43;;;;;;;12.95;8.55;;;;;;;23.36;29.47;100582.22;5072971;28;20055;-78
2023/04/21 10:10:27;;;;;;;17.00;8.95;;;;;;;23.12;30.79;100580.56;5072001;28;20024;-78
2023/04/21 10:12:53;;;;;;;13.43;8.38;;;;;;;22.74;31.35;100577.38;5054521;28;20083;-78
2023/04/21 10:15:32;;;;;;;11.10;8.10;;;;;;;22.73;32.84;100578.72;5070553;28;20433;-79
2023/04/21 10:18:15;;;;;;;16.90;7.70;;;;;;;22.93;30.24;100574.22;5071935;28;20381;-79
2023/04/21 10:20:54;;;;;;;12.60;8.02;;;;;;;22.90;30.67;100575.38;5070440;28;20401;-78
2023/04/21 10:23:28;;;;;;;15.45;8.05;;;;;;;22.86;30.35;100566.19;5071692;28;20036;-77
2023/04/21 10:26:00;;;;;;;11.68;7.75;;;;;;;22.58;30.68;100566.97;5071505;28;20031;-78
2023/04/21 10:28:53;;;;;;;14.00;8.90;;;;;;;22.35;30.81;100566.03;5071557;28;20017;-78
2023/04/21 10:31:21;;;;;;;12.70;7.60;;;;;;;22.14;31.85;100562.31;5072769;28;20107;-78
2023/04/21 10:34:06;;;;;;;11.55;8.07;;;;;;;22.04;32.03;100564.94;5073598;28;20024;-77
2023/04/21 10:36:40;;;;;;;15.13;8.38;;;;;;;22.21;32.57;100565.31;5073557;28;20389;-77
2023/04/21 10:39:06;;;;;;;12.27;7.80;;;;;;;22.15;31.43;100564.66;5073992;28;20028;-78
2023/04/21 10:41:35;;;;;;;13.85;7.82;;;;;;;22.28;31.00;100563.81;5073651;28;20453;-77
2023/04/21 10:44:00;;;;;;;10.93;7.10;;;;;;;22.32;30.22;100564.25;5072550;28;20135;-78
2023/04/21 10:46:37;;;;;;;9.82;7.70;;;;;;;22.47;29.97;100552.72;5073293;28;20040;-78
2023/04/21 10:49:11;;;;;;;10.60;7.32;;;;;;;22.34;30.30;100547.75;5073098;28;20107;-77
2023/04/21 10:51:58;;;;;;;9.93;6.43;;;;;;;21.91;29.53;100554.16;5073461;28;20025;-78
2023/04/21 10:54:27;;;;;;;11.93;6.88;;;;;;;21.25;29.58;100554.34;5072836;28;20037;-79
2023/04/21 10:56:55;;;;;;;9.90;6.65;;;;;;;20.81;30.13;100537.84;5073321;28;20049;-78
2023/04/21 10:59:21;;;;;;;15.82;6.78;;;;;;;20.33;30.23;100527.44;5073460;28;20362;-78
2023/04/21 11:01:47;;;;;;;10.45;6.07;;;;;;;20.13;30.12;100525.94;5072093;28;20073;-78
2023/04/21 11:04:13;;;;;;;8.15;5.40;;;;;;;20.04;30.55;100520.56;5073455;28;20032;-77
2023/04/21 11:06:39;;;;;;;10.32;6.00;;;;;;;20.07;30.63;100525.25;5072046;28;20020;-78
2023/04/21 11:09:04;;;;;;;7.95;5.30;;;;;;;20.21;31.36;100517.34;5073384;28;20043;-78
2023/04/21 11:11:30;;;;;;;10.65;6.03;;;;;;;20.23;30.51;100521.28;5073238;28;20032;-78